createdAt,value
2019-03-26T00:02:10.692Z,5.47
2019-03-26T00:04:43.183Z,5.47
2019-03-26T00:07:15.538Z,5.43
2019-03-26T00:09:47.845Z,5.31
2019-03-26T00:12:20.300Z,5.38
2019-03-26T00:14:52.735Z,5.26
2019-03-26T00:17:25.307Z,5.26
2019-03-26T00:19:57.572Z,5.38
2019-03-26T00:22:29.847Z,5.38
2019-03-26T00:25:03.297Z,5.42
2019-03-26T00:27:35.667Z,5.40
2019-03-26T00:30:09.546Z,5.40
2019-03-26T00:32:41.908Z,5.43
2019-03-26T00:35:14.308Z,5.40
2019-03-26T00:37:46.409Z,5.26
2019-03-26T00:40:18.512Z,5.36
2019-03-26T00:42:50.067Z,5.39
2019-03-26T00:45:22.363Z,5.42
2019-03-26T00:47:54.733Z,5.36
2019-03-26T00:50:27.299Z,5.36
2019-03-26T00:53:00.002Z,5.40
2019-03-26T00:55:33.875Z,5.40
2019-03-26T00:58:06.333Z,5.42
2019-03-26T01:00:42.213Z,5.43
2019-03-26T01:03:14.679Z,5.49
2019-03-26T01:05:48.552Z,5.46
2019-03-26T01:08:20.998Z,5.46
2019-03-26T01:10:53.382Z,5.41
2019-03-26T01:13:25.648Z,5.39
2019-03-26T01:15:58.309Z,5.39
2019-03-26T01:18:30.883Z,5.24
2019-03-26T01:21:03.338Z,5.24
2019-03-26T01:23:36.038Z,5.33
2019-03-26T01:26:08.742Z,5.37
2019-03-26T01:28:41.297Z,5.35
2019-03-26T01:31:14.602Z,5.36
2019-03-26T01:33:48.141Z,5.29
2019-03-26T01:36:20.631Z,5.39
2019-03-26T01:38:53.209Z,5.36
2019-03-26T01:41:25.583Z,5.33
2019-03-26T01:43:58.065Z,5.32
2019-03-26T01:46:30.466Z,5.39
2019-03-26T01:49:02.847Z,5.38
2019-03-26T01:51:35.307Z,5.27
2019-03-26T01:54:07.670Z,5.23
2019-03-26T01:56:40.185Z,5.23
2019-03-26T01:59:12.650Z,5.25
2019-03-26T02:01:46.291Z,5.20
2019-03-26T02:04:18.550Z,5.17
2019-03-26T02:06:50.881Z,5.17
2019-03-26T02:09:23.294Z,5.08
2019-03-26T02:11:55.543Z,5.05
2019-03-26T02:14:28.293Z,5.05
2019-03-26T02:17:00.676Z,4.94
2019-03-26T02:19:33.302Z,4.94
2019-03-26T02:22:05.554Z,4.75
2019-03-26T02:24:37.999Z,4.75
2019-03-26T02:27:10.386Z,4.60
2019-03-26T02:29:42.757Z,4.55
2019-03-26T02:32:15.320Z,4.55
2019-03-26T02:34:47.617Z,4.54
2019-03-26T02:37:20.047Z,4.54
2019-03-26T02:39:53.453Z,4.74
2019-03-26T02:42:25.798Z,4.61
2019-03-26T02:44:58.293Z,4.50
2019-03-26T02:47:31.294Z,4.05
2019-03-26T02:50:03.571Z,4.07
2019-03-26T02:52:35.863Z,4.07
2019-03-26T02:55:09.560Z,3.95
2019-03-26T02:57:41.241Z,3.91
2019-03-26T03:00:16.429Z,3.76
2019-03-26T03:02:48.260Z,3.72
2019-03-26T03:05:34.194Z,3.67
2019-03-26T03:07:54.616Z,3.56
2019-03-26T03:10:26.994Z,3.56
2019-03-26T03:12:59.554Z,3.50
2019-03-26T03:15:31.828Z,3.43
2019-03-26T03:18:04.393Z,3.34
2019-03-26T03:20:36.786Z,3.29
2019-03-26T03:23:09.353Z,3.23
2019-03-26T03:25:41.625Z,3.38
2019-03-26T03:28:14.044Z,3.38
2019-03-26T03:30:46.417Z,3.42
2019-03-26T03:33:19.036Z,3.51
2019-03-26T03:35:53.099Z,3.51
2019-03-26T03:38:25.581Z,3.43
2019-03-26T03:40:57.867Z,3.43
2019-03-26T03:43:30.889Z,3.48
2019-03-26T03:46:03.525Z,3.35
2019-03-26T03:48:37.287Z,3.37
2019-03-26T03:51:12.880Z,3.29
2019-03-26T03:53:46.530Z,3.29
2019-03-26T03:56:24.033Z,3.18
2019-03-26T03:58:59.328Z,3.13
2019-03-26T04:01:31.686Z,3.11
2019-03-26T04:04:04.286Z,3.11
2019-03-26T04:06:36.615Z,3.16
2019-03-26T04:09:09.050Z,3.16
2019-03-26T04:11:41.384Z,3.21
2019-03-26T04:14:13.693Z,3.29
2019-03-26T04:16:46.292Z,3.38
2019-03-26T04:19:18.247Z,3.41
2019-03-26T04:21:50.251Z,3.54
2019-03-26T04:24:22.448Z,3.54
2019-03-26T04:26:54.032Z,3.59
2019-03-26T04:29:26.312Z,3.61
2019-03-26T04:31:58.648Z,3.63
2019-03-26T04:34:31.061Z,3.63
2019-03-26T04:37:03.331Z,3.77
2019-03-26T04:39:35.297Z,3.82
2019-03-26T04:42:07.626Z,3.87
2019-03-26T04:44:40.295Z,3.87
2019-03-26T04:47:12.632Z,3.98
2019-03-26T04:49:45.299Z,3.98
2019-03-26T04:52:17.814Z,3.88
2019-03-26T04:54:50.285Z,3.88
2019-03-26T04:57:22.658Z,3.86
2019-03-26T04:59:55.290Z,3.86
2019-03-26T05:02:27.610Z,3.85
2019-03-26T05:05:00.044Z,3.85
2019-03-26T05:07:32.357Z,3.87
2019-03-26T05:10:06.308Z,3.60
2019-03-26T05:12:38.713Z,3.53
2019-03-26T05:15:11.319Z,3.53
2019-03-26T05:17:43.244Z,3.45
2019-03-26T05:20:15.876Z,3.37
2019-03-26T05:22:48.670Z,3.33
2019-03-26T05:25:21.282Z,3.31
2019-03-26T05:27:53.408Z,3.29
2019-03-26T05:30:25.275Z,3.23
2019-03-26T05:32:57.504Z,3.22
2019-03-26T05:35:29.754Z,3.16
2019-03-26T05:38:02.277Z,3.14
2019-03-26T05:40:34.737Z,3.20
2019-03-26T05:43:07.289Z,3.20
2019-03-26T05:45:39.242Z,3.33
2019-03-26T05:48:11.247Z,3.49
2019-03-26T05:50:43.493Z,3.60
2019-03-26T05:53:15.843Z,3.78
2019-03-26T05:55:48.283Z,3.90
2019-03-26T05:58:20.651Z,4.17
2019-03-26T06:00:53.280Z,4.17
2019-03-26T06:03:25.763Z,4.38
2019-03-26T06:05:58.284Z,4.38
2019-03-26T06:08:30.707Z,4.61
2019-03-26T06:11:03.305Z,4.61
2019-03-26T06:13:35.682Z,4.74
2019-03-26T06:16:08.330Z,4.74
2019-03-26T06:18:40.567Z,4.86
2019-03-26T06:21:13.033Z,4.86
2019-03-26T06:23:45.448Z,4.97
2019-03-26T06:26:17.244Z,5.10
2019-03-26T06:28:51.573Z,5.11
2019-03-26T06:31:24.286Z,5.21
2019-03-26T06:33:56.805Z,5.49
2019-03-26T06:36:29.356Z,5.49
2019-03-26T06:39:04.486Z,5.67
2019-03-26T06:41:37.051Z,5.67
2019-03-26T06:44:09.404Z,5.60
2019-03-26T06:46:41.049Z,5.92
2019-03-26T06:49:13.348Z,5.92
2019-03-26T06:51:45.822Z,6.17
2019-03-26T06:54:18.286Z,6.17
2019-03-26T06:56:50.644Z,6.29
2019-03-26T06:59:23.019Z,6.29
2019-03-26T07:01:56.285Z,6.42
2019-03-26T07:04:28.658Z,6.28
2019-03-26T07:07:01.134Z,6.45
2019-03-26T07:09:35.288Z,6.49
2019-03-26T07:12:07.949Z,6.35
2019-03-26T07:14:40.378Z,6.35
2019-03-26T07:17:12.643Z,6.13
2019-03-26T07:19:45.025Z,6.13
2019-03-26T07:22:17.425Z,6.21
2019-03-26T07:24:51.276Z,6.23
2019-03-26T07:27:23.693Z,6.40
2019-03-26T07:29:56.287Z,6.40
2019-03-26T07:32:28.811Z,6.54
2019-03-26T07:35:01.324Z,6.54
2019-03-26T07:37:44.653Z,6.45
2019-03-26T07:40:10.011Z,6.76
2019-03-26T07:42:44.504Z,6.90
2019-03-26T07:45:17.567Z,7.10
2019-03-26T07:47:50.028Z,6.91
2019-03-26T07:50:22.719Z,6.78
2019-03-26T07:52:56.042Z,6.88
2019-03-26T07:55:32.627Z,6.93
2019-03-26T07:58:05.537Z,7.12
2019-03-26T08:00:40.267Z,7.44
2019-03-26T08:03:13.075Z,7.64
2019-03-26T08:05:45.643Z,7.57
2019-03-26T08:08:19.295Z,7.69
2019-03-26T08:10:51.675Z,7.36
2019-03-26T08:13:24.330Z,7.36
2019-03-26T08:15:58.514Z,7.36
2019-03-26T08:18:31.907Z,7.36
2019-03-26T08:21:04.369Z,7.59
2019-03-26T08:23:38.446Z,7.52
2019-03-26T08:26:10.645Z,7.72
2019-03-26T08:28:43.312Z,7.72
2019-03-26T08:31:15.360Z,7.74
2019-03-26T08:33:48.270Z,7.50
2019-03-26T08:36:20.824Z,7.37
2019-03-26T08:38:53.463Z,7.46
2019-03-26T08:41:25.393Z,7.63
2019-03-26T08:43:57.712Z,7.17
2019-03-26T08:46:30.530Z,7.17
2019-03-26T08:49:03.282Z,7.52
2019-03-26T08:51:39.780Z,7.58
2019-03-26T08:54:13.534Z,7.58
2019-03-26T08:56:46.248Z,7.55
2019-03-26T09:02:04.274Z,7.88
2019-03-26T09:04:36.608Z,7.45
2019-03-26T09:07:11.081Z,7.45
2019-03-26T09:09:43.513Z,7.25
2019-03-26T09:12:17.596Z,7.20
2019-03-26T09:14:50.288Z,7.00
2019-03-26T09:17:25.303Z,7.19
2019-03-26T09:19:57.781Z,7.34
2019-03-26T09:22:30.315Z,7.34
2019-03-26T09:25:02.683Z,7.54
2019-03-26T09:27:35.319Z,7.54
2019-03-26T09:30:13.633Z,8.25
2019-03-26T09:32:46.139Z,8.25
2019-03-26T09:35:20.295Z,8.42
2019-03-26T09:37:52.633Z,9.04
2019-03-26T09:40:26.625Z,9.04
2019-03-26T09:42:59.290Z,9.52
2019-03-26T09:45:32.074Z,9.91
2019-03-26T09:48:04.740Z,9.91
2019-03-26T09:50:39.044Z,9.83
2019-03-26T09:53:11.597Z,10.18
2019-03-26T09:55:44.045Z,10.38
2019-03-26T09:58:16.362Z,10.88
2019-03-26T10:00:48.249Z,10.60
2019-03-26T10:03:21.298Z,11.25
2019-03-26T10:05:53.825Z,11.25
2019-03-26T10:08:26.303Z,10.67
2019-03-26T10:10:58.684Z,10.66
2019-03-26T10:13:32.490Z,10.66
2019-03-26T10:16:05.980Z,11.05
2019-03-26T10:18:41.511Z,10.93
2019-03-26T10:21:13.264Z,10.91
2019-03-26T10:23:45.833Z,10.44
2019-03-26T10:26:19.290Z,10.44
2019-03-26T10:28:51.798Z,9.84
2019-03-26T10:31:24.650Z,9.84
2019-03-26T10:33:57.308Z,9.90
2019-03-26T10:36:30.037Z,9.91
2019-03-26T10:39:05.543Z,9.91
2019-03-26T10:41:36.662Z,10.45
2019-03-26T10:44:09.310Z,10.45
2019-03-26T10:46:44.464Z,10.36
2019-03-26T10:49:16.292Z,10.36
2019-03-26T10:51:49.285Z,10.57
2019-03-26T10:54:24.028Z,10.89
2019-03-26T10:56:59.069Z,10.89
2019-03-26T10:59:31.570Z,10.69
2019-03-26T11:02:04.068Z,10.91
2019-03-26T11:04:36.600Z,10.77
2019-03-26T11:07:09.328Z,10.53
2019-03-26T11:09:42.070Z,11.44
2019-03-26T11:12:14.785Z,11.44
2019-03-26T11:14:47.299Z,11.72
2019-03-26T11:17:19.634Z,11.35
2019-03-26T11:19:51.989Z,11.35
2019-03-26T11:22:24.537Z,11.68
2019-03-26T11:24:57.293Z,11.18
2019-03-26T11:27:29.237Z,11.15
2019-03-26T11:30:01.551Z,11.44
2019-03-26T11:32:35.477Z,11.19
2019-03-26T11:35:10.100Z,11.69
2019-03-26T11:37:42.573Z,12.00
2019-03-26T11:40:17.291Z,12.48
2019-03-26T11:42:49.653Z,12.47
2019-03-26T11:45:22.317Z,12.47
2019-03-26T11:47:54.643Z,12.21
2019-03-26T11:50:27.288Z,12.21
2019-03-26T11:52:59.845Z,12.89
2019-03-26T11:55:32.370Z,13.57
2019-03-26T11:58:04.873Z,14.11
2019-03-26T12:00:38.615Z,14.11
2019-03-26T12:03:11.346Z,14.31
2019-03-26T12:05:43.800Z,14.13
2019-03-26T12:08:16.285Z,14.13
2019-03-26T12:10:48.665Z,14.15
2019-03-26T12:13:21.283Z,14.15
2019-03-26T12:15:54.006Z,13.34
2019-03-26T12:18:26.379Z,13.34
2019-03-26T12:20:58.270Z,13.43
2019-03-26T12:23:30.486Z,13.29
2019-03-26T12:26:02.885Z,12.99
2019-03-26T12:28:35.375Z,13.24
2019-03-26T12:31:07.772Z,13.23
2019-03-26T12:33:40.295Z,13.23
2019-03-26T12:36:12.636Z,13.38
2019-03-26T12:38:45.296Z,13.38
2019-03-26T12:41:17.860Z,13.55
2019-03-26T12:43:50.410Z,13.55
2019-03-26T12:46:22.783Z,14.09
2019-03-26T12:48:55.303Z,14.22
2019-03-26T12:51:27.855Z,16.62
2019-03-26T12:54:00.709Z,18.59
2019-03-26T12:56:33.371Z,19.34
2019-03-26T12:59:06.294Z,22.10
2019-03-26T13:01:39.172Z,22.67
2019-03-26T13:04:14.116Z,22.67
2019-03-26T13:06:47.933Z,20.99
2019-03-26T13:09:20.498Z,22.15
2019-03-26T13:11:52.812Z,23.16
2019-03-26T13:14:25.298Z,23.21
2019-03-26T13:16:57.750Z,23.44
2019-03-26T13:19:31.460Z,23.44
2019-03-26T13:22:04.381Z,23.73
2019-03-26T13:24:37.245Z,24.35
2019-03-26T13:27:09.970Z,22.83
2019-03-26T13:29:43.016Z,24.29
2019-03-26T13:32:15.619Z,22.74
2019-03-26T13:34:48.299Z,19.62
2019-03-26T13:37:21.923Z,21.31
2019-03-26T13:39:54.348Z,21.31
2019-03-26T13:42:26.278Z,22.49
2019-03-26T13:44:58.713Z,24.76
2019-03-26T13:47:31.303Z,24.76
2019-03-26T13:50:04.286Z,24.93
2019-03-26T13:52:37.309Z,24.55
2019-03-26T13:55:11.295Z,22.66
2019-03-26T13:57:43.763Z,26.37
2019-03-26T14:00:18.654Z,26.37
2019-03-26T14:02:51.278Z,26.01
2019-03-26T14:05:30.275Z,24.88
2019-03-26T14:08:02.782Z,25.54
2019-03-26T14:10:40.910Z,25.54
2019-03-26T14:13:09.540Z,25.34
2019-03-26T14:15:42.301Z,24.82
2019-03-26T14:18:14.747Z,25.89
2019-03-26T14:20:47.296Z,25.89
2019-03-26T14:23:19.854Z,21.89
2019-03-26T14:25:52.303Z,21.89
2019-03-26T14:28:24.586Z,19.57
2019-03-26T14:30:57.299Z,19.57
2019-03-26T14:34:07.275Z,19.21
2019-03-26T14:36:40.694Z,18.79
2019-03-26T14:39:13.610Z,21.55
2019-03-26T14:41:46.301Z,21.19
2019-03-26T14:44:18.798Z,19.96
2019-03-26T14:46:51.291Z,19.96
2019-03-26T14:49:23.895Z,22.42
2019-03-26T14:51:56.296Z,22.42
2019-03-26T14:54:28.858Z,18.77
2019-03-26T14:57:01.307Z,18.77
2019-03-26T14:59:33.679Z,18.35
2019-03-26T15:02:06.313Z,18.35
2019-03-26T15:04:38.858Z,19.40
2019-03-26T15:07:11.298Z,19.40
2019-03-26T15:09:43.037Z,21.38
2019-03-26T15:12:15.850Z,23.03
2019-03-26T15:14:48.495Z,25.25
2019-03-26T15:17:21.259Z,24.03
2019-03-26T15:19:55.249Z,22.03
2019-03-26T15:22:28.056Z,20.57
2019-03-26T15:25:01.976Z,20.57
2019-03-26T15:27:35.519Z,19.20
2019-03-26T15:30:12.300Z,19.79
2019-03-26T15:32:44.695Z,17.37
2019-03-26T15:35:17.317Z,17.37
2019-03-26T15:37:49.882Z,16.83
2019-03-26T15:40:22.543Z,16.83
2019-03-26T15:42:55.040Z,16.36
2019-03-26T15:45:27.938Z,16.40
2019-03-26T15:48:00.396Z,17.70
2019-03-26T15:50:41.705Z,17.94
2019-03-26T15:53:14.510Z,18.70
2019-03-26T15:55:47.297Z,20.37
2019-03-26T15:58:19.230Z,17.75
2019-03-26T16:00:51.583Z,17.75
2019-03-26T16:03:24.289Z,16.57
2019-03-26T16:05:56.690Z,14.83
2019-03-26T16:08:29.292Z,14.83
2019-03-26T16:11:01.805Z,14.35
2019-03-26T16:13:35.890Z,14.35
2019-03-26T16:16:08.540Z,14.57
2019-03-26T16:18:41.352Z,14.16
2019-03-26T16:21:39.544Z,13.72
2019-03-26T16:24:29.168Z,13.72
2019-03-26T16:27:05.355Z,13.23
2019-03-26T16:34:32.336Z,12.45
2019-03-26T16:37:12.229Z,12.01
2019-03-26T16:43:43.311Z,11.73
2019-03-26T16:46:24.477Z,11.73
2019-03-26T16:52:18.336Z,10.80
2019-03-26T16:57:58.747Z,10.67
2019-03-26T17:00:44.554Z,10.11
2019-03-26T17:03:31.197Z,10.11
2019-03-26T17:09:53.332Z,9.72
2019-03-26T17:12:25.833Z,9.53
2019-03-26T17:19:22.540Z,9.49
2019-03-26T17:22:04.926Z,9.30
2019-03-26T17:24:37.440Z,9.14
2019-03-26T17:27:11.608Z,8.85
2019-03-26T17:29:50.328Z,8.75
2019-03-26T17:32:29.003Z,8.51
2019-03-26T17:35:03.333Z,8.51
2019-03-26T17:38:54.042Z,8.40
2019-03-26T17:45:09.331Z,8.27
2019-03-26T17:51:02.464Z,8.34
2019-03-26T17:57:20.425Z,8.34
2019-03-26T17:59:53.328Z,8.17
2019-03-26T18:02:26.300Z,8.13
2019-03-26T18:05:03.281Z,8.10
2019-03-26T18:07:35.728Z,7.99
2019-03-26T18:10:09.339Z,7.99
2019-03-26T18:12:46.690Z,7.96
2019-03-26T18:16:12.278Z,7.95
2019-03-26T18:18:46.537Z,7.80
2019-03-26T18:21:31.294Z,7.80
2019-03-26T18:24:05.888Z,7.70
2019-03-26T18:26:38.252Z,7.70
2019-03-26T18:29:10.688Z,7.71
2019-03-26T18:31:43.410Z,7.75
2019-03-26T18:34:16.048Z,7.79
2019-03-26T18:36:50.411Z,7.78
2019-03-26T18:39:23.531Z,7.73
2019-03-26T18:41:57.769Z,7.66
2019-03-26T18:44:36.723Z,7.59
2019-03-26T18:47:09.296Z,7.53
2019-03-26T18:49:47.482Z,7.43
2019-03-26T18:52:42.409Z,7.34
2019-03-26T18:55:17.372Z,7.27
2019-03-26T18:58:09.569Z,7.24
2019-03-26T19:00:43.690Z,7.27
2019-03-26T19:03:22.621Z,7.27
2019-03-26T19:05:55.363Z,7.36
2019-03-26T19:08:27.774Z,7.44
2019-03-26T19:11:00.342Z,7.44
2019-03-26T19:13:38.484Z,7.41
2019-03-26T19:16:12.044Z,7.41
2019-03-26T19:18:44.385Z,7.48
2019-03-26T19:21:16.819Z,7.46
2019-03-26T19:24:03.050Z,7.46
2019-03-26T19:26:29.208Z,7.68
2019-03-26T19:28:59.246Z,7.64
2019-03-26T19:31:31.876Z,7.65
2019-03-26T19:34:07.618Z,7.60
2019-03-26T19:36:40.307Z,7.66
2019-03-26T19:39:12.727Z,7.67
2019-03-26T19:41:45.604Z,7.67
2019-03-26T19:44:18.287Z,7.65
2019-03-26T19:46:51.062Z,7.56
2019-03-26T19:49:23.548Z,7.56
2019-03-26T19:51:57.495Z,7.54
2019-03-26T19:54:54.516Z,7.58
2019-03-26T19:57:31.690Z,7.60
2019-03-26T20:00:16.388Z,7.59
2019-03-26T20:02:48.283Z,7.58
2019-03-26T20:05:20.788Z,7.59
2019-03-26T20:07:53.310Z,7.59
2019-03-26T20:10:27.659Z,7.63
2019-03-26T20:13:00.265Z,7.63
2019-03-26T20:15:35.822Z,7.57
2019-03-26T20:18:10.031Z,7.57
2019-03-26T20:20:42.447Z,7.68
2019-03-26T20:23:14.251Z,7.65
2019-03-26T20:25:46.762Z,7.60
2019-03-26T20:28:19.339Z,7.59
2019-03-26T20:30:51.852Z,7.60
2019-03-26T20:33:24.308Z,7.60
2019-03-26T20:35:57.085Z,7.54
2019-03-26T20:38:29.625Z,7.54
2019-03-26T20:41:02.307Z,7.54
2019-03-26T20:43:37.426Z,7.39
2019-03-26T20:46:10.516Z,7.39
2019-03-26T20:48:43.306Z,7.57
2019-03-26T20:51:15.767Z,7.49
2019-03-26T20:53:48.317Z,7.49
2019-03-26T20:56:20.239Z,7.52
2019-03-26T20:58:53.317Z,7.50
2019-03-26T21:01:25.084Z,7.50
2019-03-26T21:03:57.570Z,7.49
2019-03-26T21:06:30.291Z,7.51
2019-03-26T21:09:02.602Z,7.48
2019-03-26T21:11:36.602Z,7.48
2019-03-26T21:14:12.307Z,7.47
2019-03-26T21:16:44.873Z,7.45
2019-03-26T21:19:17.353Z,7.45
2019-03-26T21:21:52.860Z,7.37
2019-03-26T21:24:24.141Z,7.49
2019-03-26T21:26:56.675Z,7.49
2019-03-26T21:29:29.400Z,7.48
2019-03-26T21:32:03.782Z,7.47
2019-03-26T21:34:36.433Z,7.47
2019-03-26T21:37:11.604Z,7.47
2019-03-26T21:39:44.291Z,7.43
2019-03-26T21:42:18.327Z,7.40
2019-03-26T21:44:50.625Z,7.33
2019-03-26T21:47:23.309Z,7.33
2019-03-26T21:49:55.821Z,7.35
2019-03-26T21:52:28.445Z,7.35
2019-03-26T21:55:00.344Z,7.32
2019-03-26T21:57:32.838Z,7.16
2019-03-26T22:00:08.486Z,7.16
2019-03-26T22:02:42.779Z,7.34
2019-03-26T22:05:15.689Z,7.34
2019-03-26T22:07:48.298Z,7.34
2019-03-26T22:10:21.288Z,7.26
2019-03-26T22:12:54.030Z,7.26
2019-03-26T22:15:26.558Z,7.27
2019-03-26T22:17:59.298Z,7.25
2019-03-26T22:20:31.718Z,7.27
2019-03-26T22:23:04.414Z,7.27
2019-03-26T22:25:36.922Z,7.22
2019-03-26T22:28:09.351Z,7.15
2019-03-26T22:32:48.597Z,7.23
2019-03-26T22:35:21.085Z,7.20
2019-03-26T22:37:53.405Z,7.19
2019-03-26T22:40:25.108Z,7.19
2019-03-26T22:42:57.442Z,7.22
2019-03-26T22:45:29.897Z,7.21
2019-03-26T22:48:03.042Z,7.20
2019-03-26T22:50:35.444Z,7.19
2019-03-26T22:53:07.827Z,7.21
2019-03-26T22:55:41.395Z,7.26
2019-03-26T22:58:13.241Z,7.24
2019-03-26T23:00:46.275Z,7.20
2019-03-26T23:03:20.319Z,7.19
2019-03-26T23:05:52.690Z,7.17
2019-03-26T23:08:25.293Z,7.17
2019-03-26T23:10:57.753Z,7.05
2019-03-26T23:13:30.303Z,7.05
2019-03-26T23:16:02.252Z,7.20
2019-03-26T23:18:34.650Z,7.24
2019-03-26T23:21:07.341Z,7.25
2019-03-26T23:23:39.785Z,7.24
2019-03-26T23:26:12.324Z,7.21
2019-03-26T23:28:44.694Z,7.24
2019-03-26T23:31:17.360Z,7.24
2019-03-26T23:33:49.697Z,7.25
2019-03-26T23:36:22.339Z,7.28
2019-03-26T23:38:54.701Z,7.27
2019-03-26T23:41:27.350Z,7.23
2019-03-26T23:43:59.802Z,7.13
2019-03-26T23:46:32.402Z,7.15
2019-03-26T23:49:04.793Z,7.15
2019-03-26T23:51:37.293Z,7.15
2019-03-26T23:54:09.642Z,7.09
2019-03-26T23:56:42.301Z,7.09
2019-03-26T23:59:14.938Z,7.09
